createdAt,value
2022-09-17T00:00:22.228Z,10.30
2022-09-17T00:03:14.522Z,10.31
2022-09-17T00:05:50.185Z,10.31
2022-09-17T00:08:22.396Z,10.30
2022-09-17T00:10:57.997Z,10.29
2022-09-17T00:13:30.622Z,10.27
2022-09-17T00:16:03.193Z,10.26
2022-09-17T00:18:41.775Z,10.25
2022-09-17T00:21:23.130Z,10.22
2022-09-17T00:23:59.452Z,10.17
2022-09-17T00:26:33.396Z,10.15
2022-09-17T00:29:07.723Z,10.12
2022-09-17T00:31:40.237Z,10.11
2022-09-17T00:34:12.903Z,10.11
2022-09-17T00:36:45.148Z,10.09
2022-09-17T00:39:17.575Z,10.03
2022-09-17T00:41:49.986Z,10.00
2022-09-17T00:44:50.911Z,10.00
2022-09-17T00:47:33.116Z,9.99
2022-09-17T00:50:09.626Z,9.99
2022-09-17T00:52:47.610Z,10.00
2022-09-17T00:55:29.972Z,9.99
2022-09-17T00:58:08.743Z,10.01
2022-09-17T01:00:41.984Z,10.02
2022-09-17T01:03:16.960Z,10.03
2022-09-17T01:06:07.501Z,10.04
2022-09-17T01:08:52.317Z,10.05
2022-09-17T01:11:52.134Z,10.02
2022-09-17T01:14:40.647Z,10.00
2022-09-17T01:17:22.382Z,9.96
2022-09-17T01:20:17.376Z,9.96
2022-09-17T01:23:01.670Z,9.97
2022-09-17T01:25:46.259Z,10.00
2022-09-17T01:28:40.402Z,10.02
2022-09-17T01:31:36.848Z,10.03
2022-09-17T01:34:19.261Z,10.05
2022-09-17T01:37:04.291Z,10.06
2022-09-17T01:39:45.853Z,10.07
2022-09-17T01:42:25.819Z,10.08
2022-09-17T01:45:04.473Z,10.10
2022-09-17T01:47:40.994Z,10.10
2022-09-17T01:50:17.512Z,10.11
2022-09-17T01:52:53.104Z,10.13
2022-09-17T01:55:31.262Z,10.15
2022-09-17T01:58:08.386Z,10.19
2022-09-17T02:00:46.726Z,10.20
2022-09-17T02:03:23.126Z,10.21
2022-09-17T02:05:59.276Z,10.23
2022-09-17T02:08:38.118Z,10.24
2022-09-17T02:11:13.862Z,10.25
2022-09-17T02:13:48.944Z,10.25
2022-09-17T02:16:27.102Z,10.25
2022-09-17T02:19:06.976Z,10.24
2022-09-17T02:21:47.781Z,10.24
2022-09-17T02:24:25.161Z,10.24
2022-09-17T02:27:08.947Z,10.23
2022-09-17T02:29:43.756Z,10.24
2022-09-17T02:32:16.562Z,10.24
2022-09-17T02:34:49.088Z,10.25
2022-09-17T02:37:21.489Z,10.24
2022-09-17T02:39:53.763Z,10.23
2022-09-17T02:42:33.895Z,10.23
2022-09-17T02:45:16.215Z,10.22
2022-09-17T02:48:06.616Z,10.20
2022-09-17T02:50:54.448Z,10.20
2022-09-17T02:53:38.252Z,10.19
2022-09-17T02:56:25.815Z,10.17
2022-09-17T02:59:03.307Z,10.16
2022-09-17T03:01:39.910Z,10.17
2022-09-17T03:04:16.884Z,10.16
2022-09-17T03:06:50.041Z,10.14
2022-09-17T03:09:22.701Z,10.13
2022-09-17T03:11:55.402Z,10.11
2022-09-17T03:14:27.745Z,10.08
2022-09-17T03:16:59.947Z,10.07
2022-09-17T03:19:32.200Z,10.03
2022-09-17T03:22:04.474Z,10.00
2022-09-17T03:24:40.060Z,9.99
2022-09-17T03:27:12.362Z,9.95
2022-09-17T03:29:44.776Z,9.91
2022-09-17T03:32:17.541Z,9.88
2022-09-17T03:34:49.865Z,9.84
2022-09-17T03:37:22.098Z,9.80
2022-09-17T03:39:54.281Z,9.72
2022-09-17T03:42:26.620Z,9.66
2022-09-17T03:44:58.822Z,9.60
2022-09-17T03:47:33.956Z,9.57
2022-09-17T03:50:07.649Z,9.53
2022-09-17T03:52:39.946Z,9.47
2022-09-17T03:55:13.076Z,9.45
2022-09-17T03:57:46.461Z,9.45
2022-09-17T04:00:19.376Z,9.45
2022-09-17T04:02:54.532Z,9.42
2022-09-17T04:05:26.845Z,9.40
2022-09-17T04:07:59.680Z,9.40
2022-09-17T04:10:35.156Z,9.40
2022-09-17T04:13:07.489Z,9.30
2022-09-17T04:15:40.165Z,9.20
2022-09-17T04:18:13.851Z,9.14
2022-09-17T04:20:46.684Z,9.12
2022-09-17T04:23:19.032Z,9.11
2022-09-17T04:25:51.475Z,9.11
2022-09-17T04:28:24.558Z,9.14
2022-09-17T04:30:59.309Z,9.15
2022-09-17T04:33:31.582Z,9.13
2022-09-17T04:36:07.634Z,9.12
2022-09-17T04:38:40.136Z,9.08
2022-09-17T04:41:12.309Z,9.07
2022-09-17T04:43:44.512Z,9.04
2022-09-17T04:46:17.014Z,9.02
2022-09-17T04:48:49.208Z,9.00
2022-09-17T04:51:21.636Z,9.00
2022-09-17T04:53:53.857Z,9.02
2022-09-17T04:56:26.627Z,9.02
2022-09-17T04:58:58.960Z,8.97
2022-09-17T05:01:33.676Z,8.97
2022-09-17T05:04:06.036Z,8.97
2022-09-17T05:06:43.730Z,9.00
2022-09-17T05:09:18.339Z,9.04
2022-09-17T05:11:50.655Z,9.09
2022-09-17T05:14:24.126Z,9.14
2022-09-17T05:16:59.026Z,9.20
2022-09-17T05:19:32.122Z,9.26
2022-09-17T05:22:04.385Z,9.32
2022-09-17T05:24:40.199Z,9.36
2022-09-17T05:27:16.999Z,9.40
2022-09-17T05:29:48.951Z,9.44
2022-09-17T05:32:21.211Z,9.47
2022-09-17T05:34:56.387Z,9.51
2022-09-17T05:37:29.168Z,9.55
2022-09-17T05:40:01.239Z,9.60
2022-09-17T05:42:33.734Z,9.65
2022-09-17T05:45:06.646Z,9.70
2022-09-17T05:47:41.172Z,9.72
2022-09-17T05:50:13.769Z,9.76
2022-09-17T05:52:45.951Z,9.78
2022-09-17T05:55:18.884Z,9.80
2022-09-17T05:57:51.343Z,9.81
2022-09-17T06:00:23.503Z,9.84
2022-09-17T06:02:58.905Z,9.91
2022-09-17T06:05:31.245Z,10.00
2022-09-17T06:08:03.638Z,10.08
2022-09-17T06:10:38.967Z,10.20
2022-09-17T06:13:10.997Z,10.30
2022-09-17T06:15:43.110Z,10.38
2022-09-17T06:18:15.428Z,10.47
2022-09-17T06:20:56.061Z,10.58
2022-09-17T06:23:28.738Z,10.62
2022-09-17T06:26:03.869Z,10.69
2022-09-17T06:28:41.265Z,10.95
2022-09-17T06:31:16.283Z,11.26
2022-09-17T06:33:49.490Z,11.39
2022-09-17T06:36:21.763Z,11.51
2022-09-17T06:38:54.066Z,11.63
2022-09-17T06:41:27.198Z,12.34
2022-09-17T06:44:02.160Z,12.76
2022-09-17T06:46:34.322Z,12.93
2022-09-17T06:49:07.161Z,12.84
2022-09-17T06:51:39.297Z,12.56
2022-09-17T06:54:11.586Z,12.35
2022-09-17T06:56:43.766Z,12.23
2022-09-17T06:59:15.971Z,12.15
2022-09-17T07:01:48.366Z,12.10
2022-09-17T07:04:20.432Z,12.08
2022-09-17T07:06:52.819Z,12.10
2022-09-17T07:10:47.375Z,12.12
2022-09-17T07:13:28.908Z,12.18
2022-09-17T07:16:50.084Z,12.29
2022-09-17T07:19:22.855Z,12.39
2022-09-17T07:21:55.094Z,12.72
2022-09-17T07:24:33.939Z,12.99
2022-09-17T07:31:58.581Z,13.19
2022-09-17T07:34:37.851Z,13.15
2022-09-17T07:42:00.667Z,13.16
2022-09-17T07:44:39.965Z,13.16
2022-09-17T07:47:12.136Z,13.07
2022-09-17T07:49:51.002Z,12.91
2022-09-17T07:57:15.738Z,13.60
2022-09-17T07:59:47.919Z,14.18
2022-09-17T08:06:50.736Z,14.44
2022-09-17T08:09:23.531Z,14.30
2022-09-17T08:12:02.042Z,14.18
2022-09-17T08:14:34.339Z,13.97
2022-09-17T08:22:04.994Z,14.48
2022-09-17T08:28:50.012Z,14.54
2022-09-17T08:32:10.475Z,14.31
2022-09-17T08:34:48.792Z,14.16
2022-09-17T08:45:43.881Z,13.86
2022-09-17T08:49:16.171Z,13.78
2022-09-17T08:52:20.604Z,13.66
2022-09-17T09:03:42.875Z,13.38
2022-09-17T09:06:17.415Z,13.34
2022-09-17T09:18:29.607Z,13.23
2022-09-17T09:45:46.626Z,13.32
2022-09-17T09:53:25.651Z,13.41
2022-09-17T10:04:44.962Z,13.25
2022-09-17T10:07:17.422Z,13.24
2022-09-17T10:09:49.522Z,13.23
2022-09-17T10:12:28.074Z,13.21
2022-09-17T10:15:28.225Z,13.22
2022-09-17T10:31:53.816Z,13.47
2022-09-17T10:34:28.984Z,13.50
2022-09-17T10:37:56.662Z,13.51
2022-09-17T10:40:31.994Z,13.57
2022-09-17T10:49:27.579Z,13.76
2022-09-17T11:05:06.710Z,13.97
2022-09-17T11:12:44.084Z,13.84
2022-09-17T11:24:57.809Z,13.82
2022-09-17T11:40:07.610Z,13.70
2022-09-17T11:43:50.552Z,13.67
2022-09-17T11:51:33.844Z,13.84
2022-09-17T11:58:50.791Z,13.92
2022-09-17T12:19:09.853Z,13.77
2022-09-17T12:35:59.864Z,13.72
2022-09-17T12:48:16.843Z,13.68
2022-09-17T12:56:05.017Z,13.72
2022-09-17T13:03:27.938Z,14.02
2022-09-17T13:23:43.524Z,14.47
2022-09-17T13:28:05.674Z,14.43
2022-09-17T13:31:50.482Z,14.37
2022-09-17T13:44:00.702Z,14.33
2022-09-17T13:51:22.924Z,14.49
2022-09-17T13:53:58.138Z,14.51
2022-09-17T13:58:07.380Z,14.55
2022-09-17T14:10:02.381Z,14.87
2022-09-17T14:17:45.001Z,14.78
2022-09-17T14:20:18.799Z,14.73
2022-09-17T14:36:24.872Z,14.60
2022-09-17T14:38:59.413Z,14.59
2022-09-17T14:54:35.132Z,14.48
2022-09-17T14:58:02.523Z,14.45
2022-09-17T15:00:37.910Z,14.45
2022-09-17T15:20:44.296Z,14.33
2022-09-17T15:28:25.107Z,14.35
2022-09-17T15:39:59.613Z,14.28
2022-09-17T15:43:19.088Z,14.24
2022-09-17T15:45:54.512Z,14.20
2022-09-17T15:50:17.305Z,14.19
2022-09-17T15:54:01.877Z,14.18
2022-09-17T15:56:37.275Z,14.14
2022-09-17T16:01:01.886Z,14.12
2022-09-17T16:04:44.875Z,14.06
2022-09-17T16:12:00.001Z,13.99
2022-09-17T16:19:05.953Z,13.93
2022-09-17T16:21:39.282Z,13.90
2022-09-17T16:24:20.113Z,13.83
2022-09-17T16:32:31.176Z,13.81
2022-09-17T16:53:04.845Z,13.59
2022-09-17T16:56:26.464Z,13.54
2022-09-17T16:59:05.467Z,13.48
2022-09-17T17:01:39.144Z,13.44
2022-09-17T17:04:16.362Z,13.40
2022-09-17T17:06:48.547Z,13.36
2022-09-17T17:09:27.792Z,13.31
2022-09-17T17:16:49.836Z,13.18
2022-09-17T17:19:29.462Z,13.18
2022-09-17T17:22:01.530Z,13.17
2022-09-17T17:24:40.804Z,13.18
2022-09-17T17:27:15.053Z,13.17
2022-09-17T17:30:21.600Z,13.16
2022-09-17T17:33:42.535Z,13.16
2022-09-17T17:36:21.783Z,13.13
2022-09-17T17:43:41.969Z,12.97
2022-09-17T17:47:05.553Z,12.86
2022-09-17T17:50:37.753Z,12.76
2022-09-17T17:59:44.252Z,12.61
2022-09-17T18:02:20.056Z,12.50
2022-09-17T18:09:37.954Z,12.37
2022-09-17T18:43:48.666Z,11.94
2022-09-17T18:46:21.532Z,11.90
2022-09-17T18:49:01.546Z,11.89
2022-09-17T18:51:34.151Z,11.87
2022-09-17T18:54:13.802Z,11.87
2022-09-17T19:01:19.325Z,11.88
2022-09-17T19:04:35.689Z,11.89
2022-09-17T19:07:10.010Z,11.93
2022-09-17T19:10:23.371Z,11.96
2022-09-17T19:12:58.184Z,11.99
2022-09-17T19:16:11.874Z,11.99
2022-09-17T19:22:37.383Z,12.06
2022-09-17T19:29:37.816Z,12.07
2022-09-17T19:48:11.997Z,12.07
2022-09-17T19:55:29.258Z,12.04
2022-09-17T20:02:26.789Z,12.04
2022-09-17T20:06:10.394Z,12.03
2022-09-17T20:09:34.805Z,11.97
2022-09-17T20:16:30.605Z,11.97
2022-09-17T20:23:55.722Z,11.94
2022-09-17T20:26:47.791Z,11.89
2022-09-17T20:29:20.471Z,11.87
2022-09-17T20:31:58.785Z,11.85
2022-09-17T20:34:34.920Z,11.84
2022-09-17T20:54:38.696Z,11.67
2022-09-17T20:57:18.220Z,11.65
2022-09-17T21:03:51.191Z,11.57
2022-09-17T21:42:38.786Z,11.40
2022-09-17T21:45:11.974Z,11.37
2022-09-17T21:47:45.887Z,11.37
2022-09-17T21:51:29.346Z,11.37
2022-09-17T21:54:03.118Z,11.39
2022-09-17T21:56:42.178Z,11.39
2022-09-17T21:59:16.153Z,11.37
2022-09-17T22:01:54.965Z,11.37
2022-09-17T22:04:54.750Z,11.37
2022-09-17T22:07:51.407Z,11.34
2022-09-17T22:14:47.574Z,11.30
2022-09-17T22:17:19.735Z,11.31
2022-09-17T22:19:57.953Z,11.31
2022-09-17T22:22:30.309Z,11.31
2022-09-17T22:25:10.731Z,11.29
2022-09-17T22:27:41.285Z,11.22
2022-09-17T22:30:18.506Z,11.16
2022-09-17T22:32:50.622Z,11.13
2022-09-17T22:35:29.099Z,11.14
2022-09-17T22:38:01.238Z,11.16
2022-09-17T22:40:40.060Z,11.18
2022-09-17T22:43:39.029Z,11.18
2022-09-17T22:47:16.420Z,11.14
2022-09-17T23:01:04.862Z,10.98
2022-09-17T23:03:33.942Z,10.91
2022-09-17T23:06:06.015Z,10.87
2022-09-17T23:08:36.990Z,10.82
2022-09-17T23:11:08.453Z,10.77
2022-09-17T23:13:38.176Z,10.77
2022-09-17T23:16:08.855Z,10.76
2022-09-17T23:18:40.285Z,10.76
2022-09-17T23:21:16.936Z,10.79
2022-09-17T23:23:47.521Z,10.78
2022-09-17T23:26:18.951Z,10.73
2022-09-17T23:28:49.093Z,10.71
2022-09-17T23:31:22.168Z,10.74
2022-09-17T23:33:53.064Z,10.74
2022-09-17T23:36:24.394Z,10.71
2022-09-17T23:38:55.977Z,10.67
2022-09-17T23:41:29.330Z,10.62
2022-09-17T23:43:59.981Z,10.61
2022-09-17T23:46:31.383Z,10.56
2022-09-17T23:49:01.244Z,10.56
2022-09-17T23:51:33.856Z,10.55
2022-09-17T23:54:07.430Z,10.55
2022-09-17T23:56:39.772Z,10.58
2022-09-17T23:59:11.006Z,10.58
